Stolt Flamenco — ZGAH7 — position and weather

sailwx.info

Track history (hours):
 
Tides and Currents Weather Stations Pressure Air Temp Water Temp Dewpoint Dewpoint Depression Visibility Wind Speed Wind Dir Waves Ship Positions

Stolt Flamenco

Last reported at 2018-Jul-16 23:21 UTC. Time now 2018-Jul-19 13:38 UTC.
Position N 19°51' W 096°11'.

Length 124 m; draft 6.3 m.

Type: Ship (hazmat cat B). MMSI: 319017600.

Date/timePositionNaut miles runAvg speedWind from/ knotsBaromVisibWave heightAir tempDewpointWater temp
2018-Jul-16 23:21N 19°51' W 096°11'512.9
2018-Jul-16 22:56N 19°46' W 096°09'712.9
2018-Jul-16 22:25N 19°40' W 096°07'612.8
2018-Jul-16 21:59N 19°35' W 096°04'612.6
2018-Jul-16 21:30N 19°29' W 096°02'612.5
2018-Jul-16 21:00N 19°23' W 095°59'612.3
2018-Jul-16 20:30N 19°17' W 095°58'510.4
2018-Jul-16 20:00N 19°13' W 096°00'5 9.5
2018-Jul-16 19:31N 19°12' W 096°05'3 6.5
2018-Jul-16 19:00N 19°13' W 096°08'0 0.0
2018-Jul-16 18:30N 19°13' W 096°08'0 0.0
2018-Jul-16 18:01N 19°13' W 096°08'0 0.0
2018-Jul-16 17:26N 19°13' W 096°08'0 0.0
2018-Jul-16 16:50N 19°13' W 096°08'0 0.0
2018-Jul-16 16:23N 19°13' W 096°08'0 0.0
2018-Jul-16 15:56N 19°13' W 096°08'0 0.0
2018-Jul-16 15:26N 19°13' W 096°08'0 0.0
2018-Jul-16 14:59N 19°13' W 096°08'0 0.0
2018-Jul-16 14:26N 19°13' W 096°08'0 0.0
2018-Jul-16 13:56N 19°13' W 096°08'0 0.0
2018-Jul-16 13:23N 19°13' W 096°08'0 0.0
2018-Jul-16 12:59N 19°13' W 096°08'0 0.0
2018-Jul-16 12:29N 19°13' W 096°08'0 0.0
2018-Jul-16 11:59N 19°13' W 096°08'0 0.0
2018-Jul-16 11:29N 19°13' W 096°08'0 0.0
2018-Jul-16 10:59N 19°13' W 096°08'0 0.0
2018-Jul-16 10:26N 19°13' W 096°08'0 0.0
2018-Jul-16 09:59N 19°13' W 096°08'0 0.0
2018-Jul-16 09:29N 19°13' W 096°08'0 0.0
2018-Jul-16 08:56N 19°13' W 096°08'0 0.0
2018-Jul-16 08:29N 19°13' W 096°08'0 0.0
2018-Jul-16 07:56N 19°13' W 096°08'0 0.0
2018-Jul-16 07:29N 19°13' W 096°08'0 0.0
2018-Jul-16 06:59N 19°13' W 096°08'0 0.0
2018-Jul-16 06:17N 19°13' W 096°08'0 0.0
2018-Jul-16 05:59N 19°13' W 096°08'0 0.0
2018-Jul-16 05:29N 19°13' W 096°08'0 0.0
2018-Jul-16 04:59N 19°13' W 096°08'0 0.0
2018-Jul-16 04:29N 19°13' W 096°08'0 0.0
2018-Jul-16 03:56N 19°13' W 096°08'0 0.0
2018-Jul-16 03:29N 19°13' W 096°08'0 0.0
2018-Jul-16 02:59N 19°13' W 096°08'0 0.0
2018-Jul-16 02:29N 19°13' W 096°08'0 0.0
2018-Jul-16 02:01N 19°13' W 096°08'2 4.1
2018-Jul-16 01:31N 19°12' W 096°06'4 7.0
2018-Jul-16 01:00N 19°11' W 096°03'2 4.8
2018-Jul-16 00:30N 19°08' W 096°02'1 2.2
2018-Jul-15 23:58N 19°07' W 096°02'0 0.0
2018-Jul-15 23:28N 19°07' W 096°02'0 0.0
2018-Jul-15 22:58N 19°07' W 096°02'0 0.0
2018-Jul-15 22:28N 19°07' W 096°02'0 0.0
2018-Jul-15 21:58N 19°07' W 096°02'0 0.0
2018-Jul-15 21:28N 19°07' W 096°02'0 0.0
2018-Jul-15 20:58N 19°07' W 096°02'0 0.0
2018-Jul-15 20:28N 19°07' W 096°02'0 0.0
2018-Jul-15 19:58N 19°07' W 096°02'0 0.0
2018-Jul-15 19:28N 19°07' W 096°02'0 0.0
2018-Jul-15 18:58N 19°07' W 096°02'0 0.0
2018-Jul-15 18:28N 19°07' W 096°02'0 0.0
2018-Jul-15 17:58N 19°07' W 096°02'0 0.0
2018-Jul-15 17:28N 19°07' W 096°02'0 0.0
2018-Jul-15 16:58N 19°07' W 096°02'0 0.0
2018-Jul-15 16:28N 19°07' W 096°02'0 0.0
2018-Jul-15 15:58N 19°07' W 096°02'0 0.0
2018-Jul-15 15:28N 19°07' W 096°02'0 0.0
2018-Jul-15 14:52N 19°07' W 096°02'0 0.0
2018-Jul-15 14:22N 19°07' W 096°02'0 0.0
2018-Jul-15 13:40N 19°07' W 096°02'0 0.0
2018-Jul-15 13:28N 19°07' W 096°02'0 0.0
2018-Jul-15 12:58N 19°07' W 096°02'0 0.0
2018-Jul-15 12:28N 19°07' W 096°02'0 0.0
2018-Jul-15 11:58N 19°07' W 096°02'0 0.0
2018-Jul-15 11:22N 19°07' W 096°02'0 0.0
2018-Jul-15 10:58N 19°07' W 096°02'0 0.0
2018-Jul-15 10:28N 19°07' W 096°02'0 0.0
2018-Jul-15 09:58N 19°07' W 096°02'0 0.0
2018-Jul-15 09:28N 19°07' W 096°02'0 0.1
2018-Jul-15 08:58N 19°07' W 096°02'0 0.2
2018-Jul-15 08:29N 19°07' W 096°02'3 6.0
2018-Jul-15 08:00N 19°10' W 095°60'5 9.5
2018-Jul-15 07:30N 19°14' W 096°00'611.6
2018-Jul-15 07:00N 19°20' W 096°00'612.1
2018-Jul-15 06:30N 19°26' W 096°03'611.9
2018-Jul-15 06:00N 19°31' W 096°05'611.7
2018-Jul-15 05:30N 19°37' W 096°08'  
2018-Jul-11 13:52N 29°14' W 094°34'512.3
2018-Jul-11 13:29N 29°18' W 094°37'510.6
2018-Jul-11 13:00N 29°21' W 094°42'5 9.9
2018-Jul-11 12:30N 29°22' W 094°48'610.0
2018-Jul-11 11:53N 29°27' W 094°51'4 9.9
2018-Jul-11 11:30N 29°31' W 094°53'510.3
2018-Jul-11 11:00N 29°35' W 094°56'4 8.3
2018-Jul-11 10:30N 29°37' W 095°00'1 2.0
2018-Jul-11 10:00N 29°37' W 095°01'0 0.0
2018-Jul-11 09:30N 29°37' W 095°01'0 0.0
2018-Jul-11 08:58N 29°37' W 095°01'0 0.0
2018-Jul-11 08:28N 29°37' W 095°01'0 0.0
2018-Jul-11 07:58N 29°37' W 095°01'0 0.0
2018-Jul-11 07:28N 29°37' W 095°01'0 0.0
2018-Jul-11 06:58N 29°37' W 095°01'0 0.0
2018-Jul-11 06:19N 29°37' W 095°01'0 0.0
2018-Jul-11 05:58N 29°37' W 095°01'0 0.0
2018-Jul-11 05:28N 29°37' W 095°01'0 0.0
2018-Jul-11 04:58N 29°37' W 095°01'0 0.0
2018-Jul-11 04:28N 29°37' W 095°01'0 0.0
2018-Jul-11 03:58N 29°37' W 095°01'0 0.0
2018-Jul-11 03:28N 29°37' W 095°01'0 0.0
2018-Jul-11 02:58N 29°37' W 095°01'0 0.0
2018-Jul-11 02:28N 29°37' W 095°01'0 0.0
2018-Jul-11 01:58N 29°37' W 095°01'0 0.0
2018-Jul-11 01:28N 29°37' W 095°01'0 0.0
2018-Jul-11 00:58N 29°37' W 095°01'0 0.0
2018-Jul-11 00:28N 29°37' W 095°01'0 0.0
2018-Jul-10 23:58N 29°37' W 095°01'0 0.0
2018-Jul-10 23:28N 29°37' W 095°01'0 0.0
2018-Jul-10 22:58N 29°37' W 095°01'0 0.0
2018-Jul-10 22:28N 29°37' W 095°01'0 0.0
2018-Jul-10 21:58N 29°37' W 095°01'0 0.0
2018-Jul-10 21:28N 29°37' W 095°01'0 0.0
2018-Jul-10 20:58N 29°37' W 095°01'0 0.0
2018-Jul-10 20:28N 29°37' W 095°01'0 0.0
2018-Jul-10 19:58N 29°37' W 095°01'0 0.0
2018-Jul-10 19:28N 29°37' W 095°01'0 0.0
2018-Jul-10 18:55N 29°37' W 095°01'0 0.0
2018-Jul-10 18:28N 29°37' W 095°01'0 0.0
2018-Jul-10 17:58N 29°37' W 095°01'0 0.0
2018-Jul-10 17:28N 29°37' W 095°01'0 0.0
2018-Jul-10 16:55N 29°37' W 095°01'0 0.0
2018-Jul-10 16:28N 29°37' W 095°01'0 0.0
2018-Jul-10 15:58N 29°37' W 095°01'0 0.0
2018-Jul-10 15:28N 29°37' W 095°01'0 0.0
2018-Jul-10 14:58N 29°37' W 095°01'0 0.0
2018-Jul-10 14:28N 29°37' W 095°01'0 0.0
2018-Jul-10 13:58N 29°37' W 095°01'0 0.0
2018-Jul-10 13:25N 29°37' W 095°01'0 0.0
2018-Jul-10 12:58N 29°37' W 095°01'0 0.0
2018-Jul-10 12:28N 29°37' W 095°01'0 0.0
2018-Jul-10 11:58N 29°37' W 095°01'0 0.0
2018-Jul-10 11:22N 29°37' W 095°01'0 0.0
2018-Jul-10 10:58N 29°37' W 095°01'0 0.0
2018-Jul-10 10:28N 29°37' W 095°01'0 0.0
2018-Jul-10 09:58N 29°37' W 095°01'0 0.0
2018-Jul-10 09:28N 29°37' W 095°01'0 0.0
2018-Jul-10 08:58N 29°37' W 095°01'0 0.0
2018-Jul-10 08:28N 29°37' W 095°01'0 0.0
2018-Jul-10 07:58N 29°37' W 095°01'0 0.0
2018-Jul-10 07:28N 29°37' W 095°01'0 0.0
2018-Jul-10 06:58N 29°37' W 095°01'0 0.0
2018-Jul-10 06:28N 29°37' W 095°01'0 0.0
2018-Jul-10 05:58N 29°37' W 095°01'0 0.0
2018-Jul-10 05:25N 29°37' W 095°01'0 0.0
2018-Jul-10 04:58N 29°37' W 095°01'0 0.0
2018-Jul-10 04:28N 29°37' W 095°01'0 0.0
2018-Jul-10 03:58N 29°37' W 095°01'0 0.0
2018-Jul-10 03:28N 29°37' W 095°01'0 0.0
2018-Jul-10 02:58N 29°37' W 095°01'0 0.0
2018-Jul-10 02:28N 29°37' W 095°01'0 0.0
2018-Jul-10 01:58N 29°37' W 095°01'0 0.0
2018-Jul-10 01:28N 29°37' W 095°01'0 0.0
2018-Jul-10 00:58N 29°37' W 095°01'0 0.0
2018-Jul-10 00:28N 29°37' W 095°01'0 0.0
2018-Jul-09 23:58N 29°37' W 095°01'0 0.0
2018-Jul-09 23:28N 29°37' W 095°01'0 0.0
2018-Jul-09 22:58N 29°37' W 095°01'0 0.0
2018-Jul-09 22:28N 29°37' W 095°01'0 0.0
2018-Jul-09 21:58N 29°37' W 095°01'0 0.0
2018-Jul-09 21:28N 29°37' W 095°01'0 0.0
2018-Jul-09 20:58N 29°37' W 095°01'0 0.6
2018-Jul-09 20:31N 29°37' W 095°01'3 6.3
2018-Jul-09 20:00N 29°37' W 094°58'5 9.9
2018-Jul-09 19:30N 29°42' W 094°59'4 8.2
2018-Jul-09 18:58N 29°44' W 095°03'2 0.1
2018-Jul-08 20:51N 29°45' W 095°06'1 1.8
2018-Jul-08 20:29N 29°45' W 095°06'2 4.6
2018-Jul-08 20:00N 29°44' W 095°03'4 8.4
2018-Jul-08 19:30N 29°42' W 094°60'5 9.9
2018-Jul-08 19:00N 29°37' W 094°58'3 5.8
2018-Jul-08 18:30N 29°37' W 095°01'0 0.0
2018-Jul-08 17:58N 29°37' W 095°01'0 0.0
2018-Jul-08 17:25N 29°37' W 095°01'0 0.0
2018-Jul-08 16:58N 29°37' W 095°01'0 0.0
2018-Jul-08 16:28N 29°37' W 095°01'0 0.0
2018-Jul-08 15:58N 29°37' W 095°01'0 0.0
2018-Jul-08 15:28N 29°37' W 095°01'0 0.0
2018-Jul-08 14:58N 29°37' W 095°01'0 0.0
2018-Jul-08 14:28N 29°37' W 095°01'0 0.0
2018-Jul-08 13:58N 29°37' W 095°01'0 0.0
2018-Jul-08 13:25N 29°37' W 095°01'0 0.0
2018-Jul-08 12:55N 29°37' W 095°01'0 0.0
2018-Jul-08 12:28N 29°37' W 095°01'0 0.0
2018-Jul-08 11:58N 29°37' W 095°01'0 0.0
2018-Jul-08 11:28N 29°37' W 095°01'0 0.0
2018-Jul-08 10:58N 29°37' W 095°01'0 0.0
2018-Jul-08 10:28N 29°37' W 095°01'0 0.0
2018-Jul-08 09:58N 29°37' W 095°01'0 0.0
2018-Jul-08 09:28N 29°37' W 095°01'0 0.0
2018-Jul-08 08:58N 29°37' W 095°01'0 0.0
2018-Jul-08 08:28N 29°37' W 095°01'0 0.0
2018-Jul-08 07:58N 29°37' W 095°01'0 0.0
2018-Jul-08 07:28N 29°37' W 095°01'0 0.0
2018-Jul-08 06:58N 29°37' W 095°01'0 0.0
2018-Jul-08 06:28N 29°37' W 095°01'0 0.0
2018-Jul-08 05:58N 29°37' W 095°01'0 0.0
2018-Jul-08 05:28N 29°37' W 095°01'0 0.0
2018-Jul-08 04:58N 29°37' W 095°01'0 0.0
2018-Jul-08 04:25N 29°37' W 095°01'0 0.0
2018-Jul-08 03:58N 29°37' W 095°01'0 0.0
2018-Jul-08 03:28N 29°37' W 095°01'0 0.0
2018-Jul-08 02:58N 29°37' W 095°01'0 0.0
2018-Jul-08 02:28N 29°37' W 095°01'0 0.0
2018-Jul-08 01:58N 29°37' W 095°01'0 0.0
2018-Jul-08 01:25N 29°37' W 095°01'0 0.0
2018-Jul-08 01:00N 29°37' W 095°01'2 4.2
2018-Jul-08 00:30N 29°37' W 094°59'4 8.2
2018-Jul-08 00:00N 29°41' W 094°59'3 6.7
2018-Jul-07 23:30N 29°44' W 095°01'  
Track history (hours):
 
Tides and Currents Weather Stations Pressure Air Temp Water Temp Dewpoint Dewpoint Depression Visibility Wind Speed Wind Dir Waves Ship Positions

Stolt Flamenco

Last reported at 2018-Jul-16 23:21 UTC. Time now 2018-Jul-19 13:38 UTC.
Position N 19°51' W 096°11'.

Length 124 m; draft 6.3 m.

Type: Ship (hazmat cat B). MMSI: 319017600.

Date/timePositionNaut miles runAvg speedWind from/ knotsBaromVisibWave heightAir tempDewpointWater temp
2018-Jul-16 23:21N 19°51' W 096°11'512.9
2018-Jul-16 22:56N 19°46' W 096°09'712.9
2018-Jul-16 22:25N 19°40' W 096°07'612.8
2018-Jul-16 21:59N 19°35' W 096°04'612.6
2018-Jul-16 21:30N 19°29' W 096°02'612.5
2018-Jul-16 21:00N 19°23' W 095°59'612.3
2018-Jul-16 20:30N 19°17' W 095°58'510.4
2018-Jul-16 20:00N 19°13' W 096°00'5 9.5
2018-Jul-16 19:31N 19°12' W 096°05'3 6.5
2018-Jul-16 19:00N 19°13' W 096°08'0 0.0
2018-Jul-16 18:30N 19°13' W 096°08'0 0.0
2018-Jul-16 18:01N 19°13' W 096°08'0 0.0
2018-Jul-16 17:26N 19°13' W 096°08'0 0.0
2018-Jul-16 16:50N 19°13' W 096°08'0 0.0
2018-Jul-16 16:23N 19°13' W 096°08'0 0.0
2018-Jul-16 15:56N 19°13' W 096°08'0 0.0
2018-Jul-16 15:26N 19°13' W 096°08'0 0.0
2018-Jul-16 14:59N 19°13' W 096°08'0 0.0
2018-Jul-16 14:26N 19°13' W 096°08'0 0.0
2018-Jul-16 13:56N 19°13' W 096°08'0 0.0
2018-Jul-16 13:23N 19°13' W 096°08'0 0.0
2018-Jul-16 12:59N 19°13' W 096°08'0 0.0
2018-Jul-16 12:29N 19°13' W 096°08'0 0.0
2018-Jul-16 11:59N 19°13' W 096°08'0 0.0
2018-Jul-16 11:29N 19°13' W 096°08'0 0.0
2018-Jul-16 10:59N 19°13' W 096°08'0 0.0
2018-Jul-16 10:26N 19°13' W 096°08'0 0.0
2018-Jul-16 09:59N 19°13' W 096°08'0 0.0
2018-Jul-16 09:29N 19°13' W 096°08'0 0.0
2018-Jul-16 08:56N 19°13' W 096°08'0 0.0
2018-Jul-16 08:29N 19°13' W 096°08'0 0.0
2018-Jul-16 07:56N 19°13' W 096°08'0 0.0
2018-Jul-16 07:29N 19°13' W 096°08'0 0.0
2018-Jul-16 06:59N 19°13' W 096°08'0 0.0
2018-Jul-16 06:17N 19°13' W 096°08'0 0.0
2018-Jul-16 05:59N 19°13' W 096°08'0 0.0
2018-Jul-16 05:29N 19°13' W 096°08'0 0.0
2018-Jul-16 04:59N 19°13' W 096°08'0 0.0
2018-Jul-16 04:29N 19°13' W 096°08'0 0.0
2018-Jul-16 03:56N 19°13' W 096°08'0 0.0
2018-Jul-16 03:29N 19°13' W 096°08'0 0.0
2018-Jul-16 02:59N 19°13' W 096°08'0 0.0
2018-Jul-16 02:29N 19°13' W 096°08'0 0.0
2018-Jul-16 02:01N 19°13' W 096°08'2 4.1
2018-Jul-16 01:31N 19°12' W 096°06'4 7.0
2018-Jul-16 01:00N 19°11' W 096°03'2 4.8
2018-Jul-16 00:30N 19°08' W 096°02'1 2.2
2018-Jul-15 23:58N 19°07' W 096°02'0 0.0
2018-Jul-15 23:28N 19°07' W 096°02'0 0.0
2018-Jul-15 22:58N 19°07' W 096°02'0 0.0
2018-Jul-15 22:28N 19°07' W 096°02'0 0.0
2018-Jul-15 21:58N 19°07' W 096°02'0 0.0
2018-Jul-15 21:28N 19°07' W 096°02'0 0.0
2018-Jul-15 20:58N 19°07' W 096°02'0 0.0
2018-Jul-15 20:28N 19°07' W 096°02'0 0.0
2018-Jul-15 19:58N 19°07' W 096°02'0 0.0
2018-Jul-15 19:28N 19°07' W 096°02'0 0.0
2018-Jul-15 18:58N 19°07' W 096°02'0 0.0
2018-Jul-15 18:28N 19°07' W 096°02'0 0.0
2018-Jul-15 17:58N 19°07' W 096°02'0 0.0
2018-Jul-15 17:28N 19°07' W 096°02'0 0.0
2018-Jul-15 16:58N 19°07' W 096°02'0 0.0
2018-Jul-15 16:28N 19°07' W 096°02'0 0.0
2018-Jul-15 15:58N 19°07' W 096°02'0 0.0
2018-Jul-15 15:28N 19°07' W 096°02'0 0.0
2018-Jul-15 14:52N 19°07' W 096°02'0 0.0
2018-Jul-15 14:22N 19°07' W 096°02'0 0.0
2018-Jul-15 13:40N 19°07' W 096°02'0 0.0
2018-Jul-15 13:28N 19°07' W 096°02'0 0.0
2018-Jul-15 12:58N 19°07' W 096°02'0 0.0
2018-Jul-15 12:28N 19°07' W 096°02'0 0.0
2018-Jul-15 11:58N 19°07' W 096°02'0 0.0
2018-Jul-15 11:22N 19°07' W 096°02'0 0.0
2018-Jul-15 10:58N 19°07' W 096°02'0 0.0
2018-Jul-15 10:28N 19°07' W 096°02'0 0.0
2018-Jul-15 09:58N 19°07' W 096°02'0 0.0
2018-Jul-15 09:28N 19°07' W 096°02'0 0.1
2018-Jul-15 08:58N 19°07' W 096°02'0 0.2
2018-Jul-15 08:29N 19°07' W 096°02'3 6.0
2018-Jul-15 08:00N 19°10' W 095°60'5 9.5
2018-Jul-15 07:30N 19°14' W 096°00'611.6
2018-Jul-15 07:00N 19°20' W 096°00'612.1
2018-Jul-15 06:30N 19°26' W 096°03'611.9
2018-Jul-15 06:00N 19°31' W 096°05'611.7
2018-Jul-15 05:30N 19°37' W 096°08'  
2018-Jul-11 13:52N 29°14' W 094°34'512.3
2018-Jul-11 13:29N 29°18' W 094°37'510.6
2018-Jul-11 13:00N 29°21' W 094°42'5 9.9
2018-Jul-11 12:30N 29°22' W 094°48'610.0
2018-Jul-11 11:53N 29°27' W 094°51'4 9.9
2018-Jul-11 11:30N 29°31' W 094°53'510.3
2018-Jul-11 11:00N 29°35' W 094°56'4 8.3
2018-Jul-11 10:30N 29°37' W 095°00'1 2.0
2018-Jul-11 10:00N 29°37' W 095°01'0 0.0
2018-Jul-11 09:30N 29°37' W 095°01'0 0.0
2018-Jul-11 08:58N 29°37' W 095°01'0 0.0
2018-Jul-11 08:28N 29°37' W 095°01'0 0.0
2018-Jul-11 07:58N 29°37' W 095°01'0 0.0
2018-Jul-11 07:28N 29°37' W 095°01'0 0.0
2018-Jul-11 06:58N 29°37' W 095°01'0 0.0
2018-Jul-11 06:19N 29°37' W 095°01'0 0.0
2018-Jul-11 05:58N 29°37' W 095°01'0 0.0
2018-Jul-11 05:28N 29°37' W 095°01'0 0.0
2018-Jul-11 04:58N 29°37' W 095°01'0 0.0
2018-Jul-11 04:28N 29°37' W 095°01'0 0.0
2018-Jul-11 03:58N 29°37' W 095°01'0 0.0
2018-Jul-11 03:28N 29°37' W 095°01'0 0.0
2018-Jul-11 02:58N 29°37' W 095°01'0 0.0
2018-Jul-11 02:28N 29°37' W 095°01'0 0.0
2018-Jul-11 01:58N 29°37' W 095°01'0 0.0
2018-Jul-11 01:28N 29°37' W 095°01'0 0.0
2018-Jul-11 00:58N 29°37' W 095°01'0 0.0
2018-Jul-11 00:28N 29°37' W 095°01'0 0.0
2018-Jul-10 23:58N 29°37' W 095°01'0 0.0
2018-Jul-10 23:28N 29°37' W 095°01'0 0.0
2018-Jul-10 22:58N 29°37' W 095°01'0 0.0
2018-Jul-10 22:28N 29°37' W 095°01'0 0.0
2018-Jul-10 21:58N 29°37' W 095°01'0 0.0
2018-Jul-10 21:28N 29°37' W 095°01'0 0.0
2018-Jul-10 20:58N 29°37' W 095°01'0 0.0
2018-Jul-10 20:28N 29°37' W 095°01'0 0.0
2018-Jul-10 19:58N 29°37' W 095°01'0 0.0
2018-Jul-10 19:28N 29°37' W 095°01'0 0.0
2018-Jul-10 18:55N 29°37' W 095°01'0 0.0
2018-Jul-10 18:28N 29°37' W 095°01'0 0.0
2018-Jul-10 17:58N 29°37' W 095°01'0 0.0
2018-Jul-10 17:28N 29°37' W 095°01'0 0.0
2018-Jul-10 16:55N 29°37' W 095°01'0 0.0
2018-Jul-10 16:28N 29°37' W 095°01'0 0.0
2018-Jul-10 15:58N 29°37' W 095°01'0 0.0
2018-Jul-10 15:28N 29°37' W 095°01'0 0.0
2018-Jul-10 14:58N 29°37' W 095°01'0 0.0
2018-Jul-10 14:28N 29°37' W 095°01'0 0.0
2018-Jul-10 13:58N 29°37' W 095°01'0 0.0
2018-Jul-10 13:25N 29°37' W 095°01'0 0.0
2018-Jul-10 12:58N 29°37' W 095°01'0 0.0
2018-Jul-10 12:28N 29°37' W 095°01'0 0.0
2018-Jul-10 11:58N 29°37' W 095°01'0 0.0
2018-Jul-10 11:22N 29°37' W 095°01'0 0.0
2018-Jul-10 10:58N 29°37' W 095°01'0 0.0
2018-Jul-10 10:28N 29°37' W 095°01'0 0.0
2018-Jul-10 09:58N 29°37' W 095°01'0 0.0
2018-Jul-10 09:28N 29°37' W 095°01'0 0.0
2018-Jul-10 08:58N 29°37' W 095°01'0 0.0
2018-Jul-10 08:28N 29°37' W 095°01'0 0.0
2018-Jul-10 07:58N 29°37' W 095°01'0 0.0
2018-Jul-10 07:28N 29°37' W 095°01'0 0.0
2018-Jul-10 06:58N 29°37' W 095°01'0 0.0
2018-Jul-10 06:28N 29°37' W 095°01'0 0.0
2018-Jul-10 05:58N 29°37' W 095°01'0 0.0
2018-Jul-10 05:25N 29°37' W 095°01'0 0.0
2018-Jul-10 04:58N 29°37' W 095°01'0 0.0
2018-Jul-10 04:28N 29°37' W 095°01'0 0.0
2018-Jul-10 03:58N 29°37' W 095°01'0 0.0
2018-Jul-10 03:28N 29°37' W 095°01'0 0.0
2018-Jul-10 02:58N 29°37' W 095°01'0 0.0
2018-Jul-10 02:28N 29°37' W 095°01'0 0.0
2018-Jul-10 01:58N 29°37' W 095°01'0 0.0
2018-Jul-10 01:28N 29°37' W 095°01'0 0.0
2018-Jul-10 00:58N 29°37' W 095°01'0 0.0
2018-Jul-10 00:28N 29°37' W 095°01'0 0.0
2018-Jul-09 23:58N 29°37' W 095°01'0 0.0
2018-Jul-09 23:28N 29°37' W 095°01'0 0.0
2018-Jul-09 22:58N 29°37' W 095°01'0 0.0
2018-Jul-09 22:28N 29°37' W 095°01'0 0.0
2018-Jul-09 21:58N 29°37' W 095°01'0 0.0
2018-Jul-09 21:28N 29°37' W 095°01'0 0.0
2018-Jul-09 20:58N 29°37' W 095°01'0 0.6
2018-Jul-09 20:31N 29°37' W 095°01'3 6.3
2018-Jul-09 20:00N 29°37' W 094°58'5 9.9
2018-Jul-09 19:30N 29°42' W 094°59'4 8.2
2018-Jul-09 18:58N 29°44' W 095°03'2 0.1
2018-Jul-08 20:51N 29°45' W 095°06'1 1.8
2018-Jul-08 20:29N 29°45' W 095°06'2 4.6
2018-Jul-08 20:00N 29°44' W 095°03'4 8.4
2018-Jul-08 19:30N 29°42' W 094°60'5 9.9
2018-Jul-08 19:00N 29°37' W 094°58'3 5.8
2018-Jul-08 18:30N 29°37' W 095°01'0 0.0
2018-Jul-08 17:58N 29°37' W 095°01'0 0.0
2018-Jul-08 17:25N 29°37' W 095°01'0 0.0
2018-Jul-08 16:58N 29°37' W 095°01'0 0.0
2018-Jul-08 16:28N 29°37' W 095°01'0 0.0
2018-Jul-08 15:58N 29°37' W 095°01'0 0.0
2018-Jul-08 15:28N 29°37' W 095°01'0 0.0
2018-Jul-08 14:58N 29°37' W 095°01'0 0.0
2018-Jul-08 14:28N 29°37' W 095°01'0 0.0
2018-Jul-08 13:58N 29°37' W 095°01'0 0.0
2018-Jul-08 13:25N 29°37' W 095°01'0 0.0
2018-Jul-08 12:55N 29°37' W 095°01'0 0.0
2018-Jul-08 12:28N 29°37' W 095°01'0 0.0
2018-Jul-08 11:58N 29°37' W 095°01'0 0.0
2018-Jul-08 11:28N 29°37' W 095°01'0 0.0
2018-Jul-08 10:58N 29°37' W 095°01'0 0.0
2018-Jul-08 10:28N 29°37' W 095°01'0 0.0
2018-Jul-08 09:58N 29°37' W 095°01'0 0.0
2018-Jul-08 09:28N 29°37' W 095°01'0 0.0
2018-Jul-08 08:58N 29°37' W 095°01'0 0.0
2018-Jul-08 08:28N 29°37' W 095°01'0 0.0
2018-Jul-08 07:58N 29°37' W 095°01'0 0.0
2018-Jul-08 07:28N 29°37' W 095°01'0 0.0
2018-Jul-08 06:58N 29°37' W 095°01'0 0.0
2018-Jul-08 06:28N 29°37' W 095°01'0 0.0
2018-Jul-08 05:58N 29°37' W 095°01'0 0.0
2018-Jul-08 05:28N 29°37' W 095°01'0 0.0
2018-Jul-08 04:58N 29°37' W 095°01'0 0.0
2018-Jul-08 04:25N 29°37' W 095°01'0 0.0
2018-Jul-08 03:58N 29°37' W 095°01'0 0.0
2018-Jul-08 03:28N 29°37' W 095°01'0 0.0
2018-Jul-08 02:58N 29°37' W 095°01'0 0.0
2018-Jul-08 02:28N 29°37' W 095°01'0 0.0
2018-Jul-08 01:58N 29°37' W 095°01'0 0.0
2018-Jul-08 01:25N 29°37' W 095°01'0 0.0
2018-Jul-08 01:00N 29°37' W 095°01'2 4.2
2018-Jul-08 00:30N 29°37' W 094°59'4 8.2
2018-Jul-08 00:00N 29°41' W 094°59'3 6.7
2018-Jul-07 23:30N 29°44' W 095°01'  

Dump ship's entire track history